Time;durP1;ratioP1;P1;durP2;ratioP2;P2;SDS_P1;SDS_P2;PMS_P1;PMS_P2;Temp;Humidity;BMP_temperature;BMP_pressure;BME280_temperature;BME280_humidity;BME280_pressure;Samples;Min_cycle;Max_cycle;Signal;HPM_P1;HPM_P2
2023/09/15 00:01:41;;;;;;;3.55;3.30;;;;;;;;;;5021391;28;20026;-79
2023/09/15 00:04:08;;;;;;;3.13;2.92;;;;;;;;;;5021799;28;20026;-80
2023/09/15 00:06:37;;;;;;;3.42;3.13;;;;;;;;;;5020942;28;20029;-79
2023/09/15 00:09:05;;;;;;;4.07;3.78;;;;;;;;;;5020970;28;20030;-79
2023/09/15 00:11:40;;;;;;;4.82;4.18;;;;;;;;;;5020971;28;20512;-79
2023/09/15 00:14:11;;;;;;;4.68;4.28;;;;;;;;;;5020376;28;20074;-80
2023/09/15 00:16:38;;;;;;;5.47;4.97;;;;;;;;;;5020807;28;20171;-81
2023/09/15 00:19:06;;;;;;;6.03;5.43;;;;;;;;;;5019865;28;20421;-78
2023/09/15 00:21:32;;;;;;;5.20;4.80;;;;;;;;;;5020307;28;20056;-78
2023/09/15 00:23:59;;;;;;;5.28;4.65;;;;;;;;;;5024605;28;20013;-79
2023/09/15 00:26:25;;;;;;;4.93;4.43;;;;;;;;;;5030658;28;20083;-79
2023/09/15 00:28:51;;;;;;;4.90;4.50;;;;;;;;;;5019087;28;20029;-78
2023/09/15 00:31:17;;;;;;;4.80;4.40;;;;;;;;;;5017276;28;20030;-79
2023/09/15 00:33:43;;;;;;;3.45;3.17;;;;;;;;;;5017538;28;20026;-79
2023/09/15 00:36:09;;;;;;;4.10;3.80;;;;;;;;;;5021158;28;20022;-80
2023/09/15 00:38:35;;;;;;;3.95;3.65;;;;;;;;;;5021752;28;20500;-78
2023/09/15 00:41:01;;;;;;;3.70;3.40;;;;;;;;;;5021162;28;20032;-80
2023/09/15 00:43:27;;;;;;;3.03;2.83;;;;;;;;;;5037056;28;20034;-80
2023/09/15 00:45:55;;;;;;;3.03;2.83;;;;;;;;;;5040551;28;20495;-79
2023/09/15 00:48:21;;;;;;;2.92;2.72;;;;;;;;;;5040983;28;20063;-79
2023/09/15 00:50:47;;;;;;;2.70;2.50;;;;;;;;;;5032862;28;20034;-79
2023/09/15 00:53:19;;;;;;;2.75;2.55;;;;;;;;;;5019736;28;20032;-80
2023/09/15 00:55:45;;;;;;;3.30;3.10;;;;;;;;;;5019963;28;20394;-79
2023/09/15 00:58:12;;;;;;;2.63;2.50;;;;;;;;;;5021290;28;20080;-79
2023/09/15 01:00:44;;;;;;;3.08;2.88;;;;;;;;;;5022425;28;20026;-79
2023/09/15 01:03:11;;;;;;;3.10;2.85;;;;;;;;;;5041335;28;20033;-77
2023/09/15 01:05:38;;;;;;;3.35;3.05;;;;;;;;;;5035690;28;20029;-78
2023/09/15 01:08:05;;;;;;;4.38;3.97;;;;;;;;;;5024674;28;20509;-78
2023/09/15 01:10:31;;;;;;;3.80;3.50;;;;;;;;;;5023915;28;20480;-78
2023/09/15 01:12:57;;;;;;;4.70;4.30;;;;;;;;;;5042676;28;20037;-79
2023/09/15 01:15:34;;;;;;;4.40;4.00;;;;;;;;;;5040044;28;20034;-79
2023/09/15 01:18:07;;;;;;;4.28;3.90;;;;;;;;;;5027387;28;20054;-78
2023/09/15 01:20:42;;;;;;;4.50;4.03;;;;;;;;;;5023414;28;20048;-79
2023/09/15 01:23:26;;;;;;;4.15;3.78;;;;;;;;;;5026498;28;20033;-81
2023/09/15 01:25:52;;;;;;;4.75;4.35;;;;;;;;;;5025627;28;20053;-79
2023/09/15 01:28:19;;;;;;;4.45;4.05;;;;;;;;;;5026377;28;20022;-80
2023/09/15 01:30:50;;;;;;;4.20;3.70;;;;;;;;;;5027085;28;20108;-79
2023/09/15 01:33:18;;;;;;;4.22;3.83;;;;;;;;;;5027378;28;20026;-79
2023/09/15 01:35:44;;;;;;;3.55;3.25;;;;;;;;;;5029671;28;20033;-78
2023/09/15 01:38:10;;;;;;;3.78;3.40;;;;;;;;;;5029840;28;20045;-80
2023/09/15 01:40:37;;;;;;;2.97;2.78;;;;;;;;;;5036568;28;20041;-79
2023/09/15 01:43:04;;;;;;;4.07;3.67;;;;;;;;;;5047430;28;20030;-79
2023/09/15 01:45:30;;;;;;;3.67;3.38;;;;;;;;;;5025309;28;20026;-78
2023/09/15 01:47:57;;;;;;;4.30;3.85;;;;;;;;;;5027446;28;20036;-80
2023/09/15 01:50:24;;;;;;;4.20;3.80;;;;;;;;;;5028062;28;20030;-81
2023/09/15 01:52:51;;;;;;;4.63;4.22;;;;;;;;;;5027194;28;20033;-80
2023/09/15 01:55:17;;;;;;;4.13;3.80;;;;;;;;;;5026593;28;20385;-79
2023/09/15 01:57:43;;;;;;;4.43;4.03;;;;;;;;;;5027224;28;20037;-79
2023/09/15 02:00:10;;;;;;;7.32;5.97;;;;;;;;;;5026520;28;20034;-80
2023/09/15 02:02:36;;;;;;;6.25;5.45;;;;;;;;;;5026788;28;20026;-80
2023/09/15 02:05:02;;;;;;;6.10;5.47;;;;;;;;;;5026449;28;20021;-80
2023/09/15 02:07:28;;;;;;;6.93;6.15;;;;;;;;;;5026282;28;20032;-79
2023/09/15 02:09:54;;;;;;;5.97;5.47;;;;;;;;;;5027347;28;20031;-80
2023/09/15 02:12:20;;;;;;;6.20;5.40;;;;;;;;;;5024404;28;20022;-79
2023/09/15 02:14:47;;;;;;;6.43;5.57;;;;;;;;;;5023288;28;20033;-79
2023/09/15 02:17:15;;;;;;;5.40;4.90;;;;;;;;;;5024383;28;20034;-79
2023/09/15 02:19:42;;;;;;;5.22;4.72;;;;;;;;;;5031867;28;20029;-79
2023/09/15 02:22:08;;;;;;;5.93;5.43;;;;;;;;;;5036566;28;20032;-77
2023/09/15 02:24:34;;;;;;;6.30;5.70;;;;;;;;;;5036654;28;20045;-78
2023/09/15 02:27:00;;;;;;;5.20;4.70;;;;;;;;;;5036369;28;20026;-79
2023/09/15 02:29:26;;;;;;;5.57;5.07;;;;;;;;;;5034664;28;20045;-79
2023/09/15 02:31:52;;;;;;;5.43;4.93;;;;;;;;;;5036105;28;20014;-79
2023/09/15 02:34:18;;;;;;;6.40;5.50;;;;;;;;;;5037591;28;20030;-79
2023/09/15 02:36:45;;;;;;;5.35;4.85;;;;;;;;;;5037482;28;20034;-79
2023/09/15 02:39:11;;;;;;;5.03;4.55;;;;;;;;;;5037117;28;20053;-80
2023/09/15 02:41:37;;;;;;;4.97;4.50;;;;;;;;;;5037325;28;20024;-78
2023/09/15 02:44:03;;;;;;;4.70;4.30;;;;;;;;;;5047884;28;20057;-79
2023/09/15 02:46:29;;;;;;;4.13;3.72;;;;;;;;;;5056796;28;20029;-79
2023/09/15 02:48:56;;;;;;;4.30;3.90;;;;;;;;;;5051271;28;20086;-79
2023/09/15 02:51:22;;;;;;;4.40;4.00;;;;;;;;;;5037425;28;20045;-79
2023/09/15 02:53:48;;;;;;;4.45;4.05;;;;;;;;;;5037549;28;20030;-78
2023/09/15 02:56:14;;;;;;;5.05;4.65;;;;;;;;;;5037390;28;20018;-80
2023/09/15 02:58:40;;;;;;;5.53;5.03;;;;;;;;;;5037257;28;20026;-78
2023/09/15 03:01:13;;;;;;;5.28;4.78;;;;;;;;;;5035377;28;20052;-78
2023/09/15 03:03:39;;;;;;;5.13;4.50;;;;;;;;;;5035157;28;20082;-78
2023/09/15 03:06:06;;;;;;;6.80;5.10;;;;;;;;;;5035035;28;20006;-79
2023/09/15 03:08:33;;;;;;;5.47;4.88;;;;;;;;;;5035506;28;20049;-77
2023/09/15 03:10:59;;;;;;;4.90;4.40;;;;;;;;;;5034979;28;20045;-79
2023/09/15 03:13:26;;;;;;;5.50;4.80;;;;;;;;;;5034037;28;20037;-79
2023/09/15 03:15:52;;;;;;;7.15;6.47;;;;;;;;;;5034236;28;20026;-79
2023/09/15 03:18:18;;;;;;;9.07;8.10;;;;;;;;;;5034434;28;20048;-78
2023/09/15 03:20:44;;;;;;;9.98;8.02;;;;;;;;;;5034816;28;20045;-79
2023/09/15 03:23:10;;;;;;;11.55;8.40;;;;;;;;;;5034529;28;20034;-79
2023/09/15 03:25:36;;;;;;;9.18;7.82;;;;;;;;;;5033122;28;20026;-78
2023/09/15 03:28:02;;;;;;;8.80;7.30;;;;;;;;;;5032915;28;20022;-78
2023/09/15 03:30:28;;;;;;;7.32;6.55;;;;;;;;;;5033841;28;20101;-78
2023/09/15 03:32:54;;;;;;;8.40;6.65;;;;;;;;;;5034173;28;20030;-79
2023/09/15 03:35:20;;;;;;;7.28;6.10;;;;;;;;;;5033930;28;20030;-79
2023/09/15 03:37:47;;;;;;;6.88;6.18;;;;;;;;;;5034716;28;20026;-79
2023/09/15 03:40:13;;;;;;;7.45;6.65;;;;;;;;;;5033413;28;20022;-78
2023/09/15 03:42:39;;;;;;;7.60;5.90;;;;;;;;;;5045228;28;20029;-79
2023/09/15 03:45:08;;;;;;;6.18;5.57;;;;;;;;;;5001670;28;20045;-81
2023/09/15 03:47:35;;;;;;;8.07;6.55;;;;;;;;;;5016320;28;20037;-80
2023/09/15 03:50:03;;;;;;;8.35;7.45;;;;;;;;;;5001195;28;20034;-80
2023/09/15 03:52:29;;;;;;;8.07;7.25;;;;;;;;;;5018705;28;20040;-81
2023/09/15 03:55:00;;;;;;;7.50;6.50;;;;;;;;;;5020612;28;20381;-80
2023/09/15 03:57:27;;;;;;;7.22;6.15;;;;;;;;;;5024878;28;20030;-79
2023/09/15 03:59:53;;;;;;;7.22;6.53;;;;;;;;;;5030289;28;20030;-79
2023/09/15 04:02:19;;;;;;;6.68;5.88;;;;;;;;;;5033056;28;20026;-79
2023/09/15 04:04:45;;;;;;;10.48;8.48;;;;;;;;;;5031662;28;20033;-80
2023/09/15 04:07:12;;;;;;;15.13;11.30;;;;;;;;;;5020982;28;20022;-80
2023/09/15 04:09:39;;;;;;;15.02;11.98;;;;;;;;;;5025600;28;20044;-80
2023/09/15 04:12:05;;;;;;;15.75;11.85;;;;;;;;;;5034111;28;20097;-78
2023/09/15 04:14:34;;;;;;;13.73;11.68;;;;;;;;;;5034274;28;20010;-79
2023/09/15 04:17:03;;;;;;;15.00;11.95;;;;;;;;;;5035253;28;20018;-79
2023/09/15 04:19:30;;;;;;;17.10;14.15;;;;;;;;;;5034194;28;20036;-80
2023/09/15 04:21:56;;;;;;;16.85;12.40;;;;;;;;;;5035927;28;20030;-80
2023/09/15 04:24:22;;;;;;;17.30;14.57;;;;;;;;;;5036287;28;20018;-81
2023/09/15 04:26:48;;;;;;;14.05;11.77;;;;;;;;;;5035453;28;20040;-81
2023/09/15 04:29:14;;;;;;;16.38;12.80;;;;;;;;;;5036001;28;20037;-80
2023/09/15 04:31:40;;;;;;;17.98;13.95;;;;;;;;;;5036615;28;20044;-80
2023/09/15 04:34:06;;;;;;;15.43;12.85;;;;;;;;;;5034682;28;20101;-80
2023/09/15 04:36:32;;;;;;;15.32;12.68;;;;;;;;;;5021402;28;20045;-80
2023/09/15 04:38:58;;;;;;;14.93;12.27;;;;;;;;;;5047908;28;20034;-78
2023/09/15 04:41:25;;;;;;;15.65;12.57;;;;;;;;;;5020447;28;20052;-79
2023/09/15 04:43:53;;;;;;;16.35;13.10;;;;;;;;;;5031425;28;20033;-80
2023/09/15 04:46:19;;;;;;;14.63;11.23;;;;;;;;;;5014767;28;20026;-79
2023/09/15 04:48:45;;;;;;;19.27;15.07;;;;;;;;;;5011471;28;20037;-81
2023/09/15 04:51:11;;;;;;;21.02;15.82;;;;;;;;;;5018415;28;20022;-79
2023/09/15 04:53:37;;;;;;;19.88;15.60;;;;;;;;;;5033331;28;20080;-79
2023/09/15 04:56:05;;;;;;;19.00;14.02;;;;;;;;;;5031107;28;20025;-80
2023/09/15 04:58:31;;;;;;;21.65;16.92;;;;;;;;;;5031991;28;20052;-80
2023/09/15 05:01:01;;;;;;;22.55;16.58;;;;;;;;;;5031914;28;20041;-82
2023/09/15 05:03:27;;;;;;;20.85;15.60;;;;;;;;;;5031126;28;20129;-81
2023/09/15 05:05:53;;;;;;;22.42;15.88;;;;;;;;;;5020794;28;20038;-78
2023/09/15 05:08:19;;;;;;;19.83;16.48;;;;;;;;;;5014556;28;20026;-78
2023/09/15 05:10:49;;;;;;;17.52;14.32;;;;;;;;;;5012674;28;20052;-78
2023/09/15 05:13:15;;;;;;;19.05;14.65;;;;;;;;;;5014641;28;20061;-77
2023/09/15 05:15:42;;;;;;;18.02;13.95;;;;;;;;;;5013783;28;20033;-78
2023/09/15 05:18:08;;;;;;;18.13;13.60;;;;;;;;;;5013890;28;20037;-78
2023/09/15 05:20:34;;;;;;;15.43;13.10;;;;;;;;;;5013217;28;20029;-78
2023/09/15 05:23:00;;;;;;;14.73;11.65;;;;;;;;;;5013919;28;20026;-78
2023/09/15 05:25:26;;;;;;;13.73;10.48;;;;;;;;;;5013777;28;20093;-78
2023/09/15 05:27:52;;;;;;;11.85;10.57;;;;;;;;;;5012864;28;20018;-77
2023/09/15 05:30:18;;;;;;;13.38;10.35;;;;;;;;;;5015236;28;20060;-78
2023/09/15 05:32:45;;;;;;;10.30;9.18;;;;;;;;;;5013766;28;20034;-78
2023/09/15 05:35:11;;;;;;;11.27;9.68;;;;;;;;;;5014668;28;20018;-78
2023/09/15 05:37:37;;;;;;;15.80;12.80;;;;;;;;;;5014118;28;20116;-78
2023/09/15 05:40:03;;;;;;;20.75;15.27;;;;;;;;;;4999818;28;20081;-78
2023/09/15 05:42:30;;;;;;;18.67;14.80;;;;;;;;;;5035026;28;20434;-79
2023/09/15 05:44:56;;;;;;;20.58;15.73;;;;;;;;;;5037922;28;20092;-77
2023/09/15 05:47:25;;;;;;;18.63;14.15;;;;;;;;;;5038491;28;20026;-79
2023/09/15 05:49:51;;;;;;;16.33;13.38;;;;;;;;;;5031586;28;20022;-81
2023/09/15 05:52:17;;;;;;;17.13;12.85;;;;;;;;;;5039546;28;20056;-79
2023/09/15 05:54:44;;;;;;;15.07;11.80;;;;;;;;;;5036622;28;20018;-80
2023/09/15 05:57:10;;;;;;;14.23;11.32;;;;;;;;;;5037366;28;20030;-79
2023/09/15 05:59:36;;;;;;;14.57;11.30;;;;;;;;;;5050812;28;20071;-79
2023/09/15 06:02:02;;;;;;;15.48;11.48;;;;;;;;;;5034053;28;20116;-80
2023/09/15 06:04:28;;;;;;;12.43;10.32;;;;;;;;;;5031179;28;20030;-80
2023/09/15 06:06:54;;;;;;;12.20;10.38;;;;;;;;;;5031333;28;20026;-78
2023/09/15 06:09:20;;;;;;;11.82;9.70;;;;;;;;;;5025332;28;20461;-79
2023/09/15 06:11:46;;;;;;;12.95;9.55;;;;;;;;;;5038067;28;20032;-77
2023/09/15 06:14:12;;;;;;;9.73;7.97;;;;;;;;;;5044185;28;20388;-78
2023/09/15 06:16:39;;;;;;;15.38;12.18;;;;;;;;;;5047244;28;20079;-79
2023/09/15 06:19:06;;;;;;;16.50;11.93;;;;;;;;;;5050600;28;20036;-77
2023/09/15 06:21:33;;;;;;;13.77;10.98;;;;;;;;;;5040000;28;20079;-79
2023/09/15 06:23:59;;;;;;;14.25;10.93;;;;;;;;;;5043675;28;20049;-78
2023/09/15 06:26:25;;;;;;;14.02;10.88;;;;;;;;;;5037385;28;20502;-78
2023/09/15 06:28:51;;;;;;;14.35;10.70;;;;;;;;;;5037487;28;20021;-78
2023/09/15 06:31:19;;;;;;;12.93;10.68;;;;;;;;;;5039507;28;20036;-80
2023/09/15 06:33:45;;;;;;;14.85;12.63;;;;;;;;;;5046820;28;20103;-80
2023/09/15 06:36:11;;;;;;;13.90;11.77;;;;;;;;;;5025826;28;20065;-78
2023/09/15 06:38:37;;;;;;;17.67;13.48;;;;;;;;;;5038481;28;20014;-81
2023/09/15 06:41:04;;;;;;;15.02;12.70;;;;;;;;;;5045780;28;20042;-80
2023/09/15 06:43:30;;;;;;;15.13;12.10;;;;;;;;;;5049813;28;20030;-81
2023/09/15 06:45:56;;;;;;;14.45;11.57;;;;;;;;;;5058585;28;20038;-80
2023/09/15 06:48:22;;;;;;;14.05;10.98;;;;;;;;;;5058282;28;20014;-82
2023/09/15 06:50:48;;;;;;;13.23;11.32;;;;;;;;;;5022291;28;20033;-81
2023/09/15 06:53:15;;;;;;;15.20;10.57;;;;;;;;;;5017842;28;20038;-81
2023/09/15 06:55:41;;;;;;;11.65;9.48;;;;;;;;;;5018389;28;20015;-81
2023/09/15 06:58:07;;;;;;;12.10;9.63;;;;;;;;;;5017902;28;20023;-80
2023/09/15 07:00:33;;;;;;;9.48;8.27;;;;;;;;;;5017574;28;20072;-80
2023/09/15 07:02:59;;;;;;;11.23;9.90;;;;;;;;;;5016382;28;20026;-80
2023/09/15 07:05:25;;;;;;;10.77;9.13;;;;;;;;;;5017008;28;20034;-81
2023/09/15 07:07:51;;;;;;;10.00;8.88;;;;;;;;;;5016716;28;20050;-80
2023/09/15 07:10:17;;;;;;;9.77;8.73;;;;;;;;;;5023502;28;20120;-82
2023/09/15 07:12:43;;;;;;;8.73;7.38;;;;;;;;;;5036446;28;20021;-82
2023/09/15 07:15:10;;;;;;;10.30;9.07;;;;;;;;;;5034832;28;20056;-80
2023/09/15 07:17:36;;;;;;;13.52;11.75;;;;;;;;;;5035801;28;20029;-81
2023/09/15 07:20:02;;;;;;;12.98;11.10;;;;;;;;;;5036060;28;20025;-80
2023/09/15 07:22:28;;;;;;;13.10;11.50;;;;;;;;;;5034955;28;20018;-80
2023/09/15 07:24:54;;;;;;;11.45;10.20;;;;;;;;;;5036465;28;20065;-81
2023/09/15 07:27:21;;;;;;;11.60;10.00;;;;;;;;;;5035427;28;20026;-81
2023/09/15 07:29:47;;;;;;;11.88;9.43;;;;;;;;;;5034950;28;20037;-80
2023/09/15 07:32:13;;;;;;;10.43;9.32;;;;;;;;;;5017170;28;20018;-79
2023/09/15 07:34:39;;;;;;;11.88;10.32;;;;;;;;;;5014388;28;20098;-80
2023/09/15 07:37:06;;;;;;;11.55;9.00;;;;;;;;;;5015327;28;20030;-79
2023/09/15 07:39:32;;;;;;;11.18;9.35;;;;;;;;;;5013979;28;20030;-80
2023/09/15 07:41:58;;;;;;;7.95;7.15;;;;;;;;;;5021612;28;20026;-80
2023/09/15 07:44:24;;;;;;;9.43;8.27;;;;;;;;;;5030144;28;20056;-80
2023/09/15 07:46:50;;;;;;;9.55;8.55;;;;;;;;;;5033241;28;20049;-81
2023/09/15 07:49:16;;;;;;;9.05;8.15;;;;;;;;;;5032909;28;20130;-80
2023/09/15 07:51:43;;;;;;;9.00;7.18;;;;;;;;;;5034392;28;20025;-82
2023/09/15 07:54:09;;;;;;;9.70;7.30;;;;;;;;;;5034654;28;20087;-80
2023/09/15 07:56:36;;;;;;;8.82;7.38;;;;;;;;;;5033477;28;20030;-80
2023/09/15 07:59:03;;;;;;;7.10;6.40;;;;;;;;;;5034102;28;20033;-79
2023/09/15 08:01:29;;;;;;;6.70;6.00;;;;;;;;;;5029934;28;20022;-79
2023/09/15 08:03:55;;;;;;;7.00;6.30;;;;;;;;;;5015723;28;20115;-82
2023/09/15 08:06:21;;;;;;;6.70;6.03;;;;;;;;;;5015047;28;20080;-80
2023/09/15 08:08:48;;;;;;;6.13;5.53;;;;;;;;;;5015712;28;20448;-82
2023/09/15 08:11:14;;;;;;;5.97;5.38;;;;;;;;;;5023293;28;20057;-81
2023/09/15 08:13:40;;;;;;;5.88;5.28;;;;;;;;;;5058725;28;20420;-80
2023/09/15 08:16:06;;;;;;;4.85;4.30;;;;;;;;;;5056032;28;20052;-81
2023/09/15 08:18:32;;;;;;;6.38;5.78;;;;;;;;;;5055534;28;20032;-80
2023/09/15 08:20:58;;;;;;;7.80;7.00;;;;;;;;;;5054127;28;20056;-81
2023/09/15 08:23:24;;;;;;;8.00;6.43;;;;;;;;;;5042233;28;20014;-80
2023/09/15 08:25:50;;;;;;;6.25;5.65;;;;;;;;;;5035728;28;20005;-81
2023/09/15 08:28:16;;;;;;;6.10;5.50;;;;;;;;;;5036153;28;20029;-81
2023/09/15 08:30:46;;;;;;;5.40;4.90;;;;;;;;;;5036005;28;20038;-80
2023/09/15 08:33:12;;;;;;;4.82;4.43;;;;;;;;;;5035085;28;20030;-79
2023/09/15 08:35:38;;;;;;;4.82;4.43;;;;;;;;;;5034277;28;20094;-79
2023/09/15 08:38:04;;;;;;;4.88;4.35;;;;;;;;;;5033741;28;20056;-79
2023/09/15 08:40:38;;;;;;;4.90;4.40;;;;;;;;;;5036005;28;20733;-81
2023/09/15 08:43:05;;;;;;;5.18;4.70;;;;;;;;;;5046920;28;20093;-78
2023/09/15 08:45:34;;;;;;;4.95;4.45;;;;;;;;;;5036780;28;20040;-81
2023/09/15 08:48:03;;;;;;;4.68;4.28;;;;;;;;;;5035751;28;20030;-80
2023/09/15 08:50:30;;;;;;;4.97;4.57;;;;;;;;;;5033604;28;20042;-79
2023/09/15 08:52:57;;;;;;;5.20;4.70;;;;;;;;;;5032120;28;20030;-80
2023/09/15 08:55:23;;;;;;;4.72;4.28;;;;;;;;;;5028688;28;20110;-83
2023/09/15 08:57:50;;;;;;;5.05;4.55;;;;;;;;;;5012884;28;20023;-79
2023/09/15 09:00:16;;;;;;;4.47;4.07;;;;;;;;;;5012081;28;20056;-81
2023/09/15 09:02:42;;;;;;;6.93;6.18;;;;;;;;;;5025814;28;20041;-81
2023/09/15 09:05:08;;;;;;;6.97;6.28;;;;;;;;;;5030484;28;20025;-77
2023/09/15 09:07:35;;;;;;;6.40;5.80;;;;;;;;;;5032215;28;20022;-80
2023/09/15 09:10:07;;;;;;;5.63;5.13;;;;;;;;;;5036654;28;20109;-79
2023/09/15 09:12:33;;;;;;;7.97;6.00;;;;;;;;;;5031321;28;20022;-78
2023/09/15 09:15:00;;;;;;;5.95;5.45;;;;;;;;;;5036473;28;20039;-78
2023/09/15 09:17:28;;;;;;;5.60;5.10;;;;;;;;;;5026886;28;20056;-80
2023/09/15 09:19:54;;;;;;;4.95;4.55;;;;;;;;;;5027276;28;20022;-79
2023/09/15 09:22:22;;;;;;;5.20;4.70;;;;;;;;;;5027544;28;20098;-80
2023/09/15 09:24:58;;;;;;;5.40;4.90;;;;;;;;;;5030472;28;20014;-79
2023/09/15 09:27:44;;;;;;;5.55;4.70;;;;;;;;;;5030155;28;20018;-78
2023/09/15 09:30:11;;;;;;;4.43;4.03;;;;;;;;;;5031486;28;20037;-80
2023/09/15 09:32:38;;;;;;;4.30;3.90;;;;;;;;;;5028907;28;20052;-79
2023/09/15 09:35:04;;;;;;;3.88;3.55;;;;;;;;;;5032049;28;20041;-81
2023/09/15 09:37:31;;;;;;;4.43;4.03;;;;;;;;;;5029226;28;20057;-78
2023/09/15 09:39:59;;;;;;;4.30;4.00;;;;;;;;;;5050038;28;20057;-83
2023/09/15 09:42:26;;;;;;;4.18;3.85;;;;;;;;;;5047274;28;20041;-83
2023/09/15 09:44:53;;;;;;;3.72;3.35;;;;;;;;;;5040666;28;20022;-80
2023/09/15 09:47:19;;;;;;;7.15;6.05;;;;;;;;;;5039289;28;20014;-82
2023/09/15 09:49:45;;;;;;;5.88;5.35;;;;;;;;;;5038115;28;20026;-79
2023/09/15 09:52:13;;;;;;;6.28;5.68;;;;;;;;;;5035662;28;20029;-79
2023/09/15 09:54:39;;;;;;;6.72;4.55;;;;;;;;;;5034907;28;20484;-81
2023/09/15 09:57:05;;;;;;;6.20;5.55;;;;;;;;;;5030855;28;20164;-80
2023/09/15 09:59:31;;;;;;;6.20;5.70;;;;;;;;;;5034710;28;20064;-81
2023/09/15 10:01:58;;;;;;;5.75;5.25;;;;;;;;;;5031711;28;20022;-78
2023/09/15 10:04:24;;;;;;;5.13;4.63;;;;;;;;;;5025058;28;20033;-82
2023/09/15 10:06:50;;;;;;;4.10;3.80;;;;;;;;;;5032569;28;20080;-80
2023/09/15 10:09:18;;;;;;;4.50;4.10;;;;;;;;;;5035310;28;20056;-81
2023/09/15 10:11:44;;;;;;;4.40;4.00;;;;;;;;;;5037960;28;20076;-84
2023/09/15 10:14:10;;;;;;;3.92;3.63;;;;;;;;;;5035646;28;20029;-80
2023/09/15 10:16:36;;;;;;;3.78;3.47;;;;;;;;;;5033433;28;20018;-81
2023/09/15 10:19:03;;;;;;;4.57;4.18;;;;;;;;;;5033160;28;20033;-82
2023/09/15 10:21:32;;;;;;;4.35;4.05;;;;;;;;;;5033139;28;20026;-81
2023/09/15 10:24:06;;;;;;;4.93;4.43;;;;;;;;;;5012102;28;20030;-80
2023/09/15 10:26:32;;;;;;;4.60;4.20;;;;;;;;;;5011177;28;20409;-81
2023/09/15 10:28:59;;;;;;;4.28;3.88;;;;;;;;;;5013604;28;20474;-81
2023/09/15 10:31:26;;;;;;;4.57;4.18;;;;;;;;;;5008443;28;20053;-82
2023/09/15 10:33:52;;;;;;;4.95;4.50;;;;;;;;;;5012491;28;20036;-80
2023/09/15 10:36:18;;;;;;;5.13;4.65;;;;;;;;;;5013042;28;20057;-81
2023/09/15 10:38:45;;;;;;;5.05;4.65;;;;;;;;;;5013014;28;20026;-80
2023/09/15 10:41:11;;;;;;;5.70;5.30;;;;;;;;;;5018305;28;20029;-80
2023/09/15 10:43:49;;;;;;;5.82;5.25;;;;;;;;;;5039407;28;20033;-81
2023/09/15 10:46:15;;;;;;;5.20;4.80;;;;;;;;;;5033283;28;20049;-80
2023/09/15 11:32:15;;;;;;;5.43;5.03;;;;;;;;;;5176652;27;20138;-85
2023/09/15 11:34:41;;;;;;;5.32;4.93;;;;;;;;;;5175646;27;20019;-86
2023/09/15 11:37:07;;;;;;;8.20;6.13;;;;;;;;;;5176371;27;20031;-84
2023/09/15 11:39:33;;;;;;;6.50;5.93;;;;;;;;;;5175276;27;20041;-87
2023/09/15 11:42:01;;;;;;;5.60;5.18;;;;;;;;;;5176388;27;20011;-84
2023/09/15 11:44:30;;;;;;;5.05;4.65;;;;;;;;;;5176352;27;20019;-86
2023/09/15 11:46:57;;;;;;;5.90;5.35;;;;;;;;;;5158409;27;20035;-83
2023/09/15 11:49:25;;;;;;;5.90;5.40;;;;;;;;;;5155156;28;20026;-86
2023/09/15 11:51:53;;;;;;;6.75;6.15;;;;;;;;;;5155512;28;20031;-85
2023/09/15 11:54:20;;;;;;;6.13;5.63;;;;;;;;;;5156408;28;19999;-85
2023/09/15 11:56:46;;;;;;;5.75;5.25;;;;;;;;;;5156228;28;20018;-83
2023/09/15 11:59:15;;;;;;;5.45;4.95;;;;;;;;;;5156501;28;20060;-84
2023/09/15 12:01:41;;;;;;;6.50;4.50;;;;;;;;;;5155522;28;20093;-86
2023/09/15 12:04:09;;;;;;;5.00;4.60;;;;;;;;;;5155634;28;20019;-85
2023/09/15 12:06:35;;;;;;;5.68;5.18;;;;;;;;;;5155189;28;20010;-86
2023/09/15 12:09:02;;;;;;;5.05;4.65;;;;;;;;;;5155523;28;20012;-86
2023/09/15 12:11:29;;;;;;;5.05;4.65;;;;;;;;;;5171940;27;20069;-86
2023/09/15 12:13:56;;;;;;;5.45;5.03;;;;;;;;;;5179046;27;20007;-86
2023/09/15 12:16:31;;;;;;;6.03;5.53;;;;;;;;;;5171049;27;20023;-87
2023/09/15 12:18:58;;;;;;;5.93;5.47;;;;;;;;;;5154901;28;20011;-87
2023/09/15 12:21:26;;;;;;;5.65;4.75;;;;;;;;;;5155146;28;20031;-84
2023/09/15 12:23:54;;;;;;;5.32;4.90;;;;;;;;;;5154201;28;20015;-84
2023/09/15 12:26:21;;;;;;;5.32;4.93;;;;;;;;;;5153890;27;20037;-83
2023/09/15 12:28:48;;;;;;;5.30;4.90;;;;;;;;;;5155198;28;20020;-85
2023/09/15 12:31:21;;;;;;;5.75;5.13;;;;;;;;;;5155523;27;20035;-84
2023/09/15 12:33:56;;;;;;;5.50;5.00;;;;;;;;;;5176053;27;20027;-85
2023/09/15 12:36:23;;;;;;;5.22;4.65;;;;;;;;;;5158330;27;20031;-84
2023/09/15 12:42:00;;;;;;;4.03;3.65;;;;;;;;;;5150938;28;20035;-83
2023/09/15 12:44:26;;;;;;;4.90;4.38;;;;;;;;;;5140451;28;20028;-82
2023/09/15 12:46:52;;;;;;;4.38;3.97;;;;;;;;;;5141527;28;20068;-80
2023/09/15 12:49:20;;;;;;;4.60;4.20;;;;;;;;;;5141712;28;20090;-83
2023/09/15 12:51:46;;;;;;;4.47;3.97;;;;;;;;;;5141484;28;20011;-82
2023/09/15 12:54:12;;;;;;;4.40;4.00;;;;;;;;;;5140717;28;20024;-78
2023/09/15 12:56:38;;;;;;;4.50;4.20;;;;;;;;;;5141068;28;20044;-83
2023/09/15 12:59:04;;;;;;;3.60;3.30;;;;;;;;;;5140609;28;20030;-83
2023/09/15 13:01:31;;;;;;;4.20;3.80;;;;;;;;;;5140560;28;20024;-83
2023/09/15 13:03:57;;;;;;;3.58;3.28;;;;;;;;;;5139804;28;20031;-79
2023/09/15 13:06:23;;;;;;;3.63;3.33;;;;;;;;;;5139231;28;20022;-80
2023/09/15 13:08:49;;;;;;;3.20;3.00;;;;;;;;;;5140439;28;20035;-80
2023/09/15 13:11:15;;;;;;;3.30;3.10;;;;;;;;;;5140957;28;20041;-79
2023/09/15 13:13:41;;;;;;;3.30;3.10;;;;;;;;;;5140705;28;20031;-83
2023/09/15 13:16:07;;;;;;;3.08;2.88;;;;;;;;;;5141029;28;20027;-82
2023/09/15 13:18:33;;;;;;;2.97;2.78;;;;;;;;;;5140628;28;20062;-78
2023/09/15 13:21:00;;;;;;;3.33;3.03;;;;;;;;;;5140318;28;20051;-79
2023/09/15 13:23:26;;;;;;;2.97;2.78;;;;;;;;;;5140126;28;20055;-77
2023/09/15 13:25:52;;;;;;;3.03;2.83;;;;;;;;;;5139941;28;20053;-84
2023/09/15 13:28:18;;;;;;;2.83;2.72;;;;;;;;;;5140437;28;20019;-82
2023/09/15 13:30:44;;;;;;;2.70;2.50;;;;;;;;;;5139811;28;20024;-82
2023/09/15 13:33:10;;;;;;;3.22;2.92;;;;;;;;;;5140066;28;20031;-82
2023/09/15 13:35:36;;;;;;;2.85;2.65;;;;;;;;;;5140357;28;20039;-80
2023/09/15 13:38:02;;;;;;;3.60;3.30;;;;;;;;;;5140366;28;20028;-83
2023/09/15 13:40:28;;;;;;;3.72;3.30;;;;;;;;;;5139418;28;20028;-80
2023/09/15 13:42:55;;;;;;;3.70;3.40;;;;;;;;;;5147638;27;20003;-80
2023/09/15 13:45:21;;;;;;;3.63;3.33;;;;;;;;;;5160709;27;20029;-81
2023/09/15 13:47:47;;;;;;;2.83;2.63;;;;;;;;;;5160838;27;20070;-78
2023/09/15 13:50:13;;;;;;;3.00;2.80;;;;;;;;;;5160192;27;20046;-79
2023/09/15 13:52:38;;;;;;;3.08;2.88;;;;;;;;;;5160795;27;20038;-83
2023/09/15 13:55:05;;;;;;;3.08;2.88;;;;;;;;;;5138542;28;20028;-78
2023/09/15 13:57:32;;;;;;;3.15;2.85;;;;;;;;;;5139460;28;20049;-84
2023/09/15 13:59:58;;;;;;;3.70;3.40;;;;;;;;;;5139905;28;20018;-79
2023/09/15 14:02:25;;;;;;;3.60;3.30;;;;;;;;;;5139858;28;20060;-82
2023/09/15 14:04:51;;;;;;;3.88;3.58;;;;;;;;;;5139688;28;20037;-77
2023/09/15 14:07:18;;;;;;;3.60;3.30;;;;;;;;;;5139627;28;20020;-77
2023/09/15 14:09:44;;;;;;;4.03;2.95;;;;;;;;;;5139507;28;20019;-77
2023/09/15 14:12:10;;;;;;;4.47;3.20;;;;;;;;;;5138068;28;20037;-81
2023/09/15 14:17:41;;;;;;;3.25;2.95;;;;;;;;;;5160852;27;20056;-83
2023/09/15 14:20:08;;;;;;;3.15;2.85;;;;;;;;;;5159799;27;20071;-83
2023/09/15 14:22:34;;;;;;;4.28;2.67;;;;;;;;;;5159802;27;20044;-79
2023/09/15 14:25:05;;;;;;;2.95;2.70;;;;;;;;;;5159683;27;20036;-78
2023/09/15 14:27:31;;;;;;;4.10;3.15;;;;;;;;;;5160365;27;20019;-80
2023/09/15 14:29:57;;;;;;;2.85;2.65;;;;;;;;;;5159914;27;20070;-78
2023/09/15 14:32:25;;;;;;;3.28;2.92;;;;;;;;;;5159541;27;20035;-83
2023/09/15 14:34:51;;;;;;;3.63;3.33;;;;;;;;;;5159367;27;20015;-82
2023/09/15 14:37:17;;;;;;;3.50;3.20;;;;;;;;;;5158771;27;20030;-80
2023/09/15 14:39:43;;;;;;;3.63;3.33;;;;;;;;;;5159180;27;20052;-78
2023/09/15 14:42:11;;;;;;;2.88;2.67;;;;;;;;;;5156921;27;20015;-84
2023/09/15 14:44:37;;;;;;;4.20;3.33;;;;;;;;;;5158616;27;20011;-83
2023/09/15 14:47:03;;;;;;;3.05;2.80;;;;;;;;;;5152989;27;20011;-85
2023/09/15 14:49:29;;;;;;;3.55;3.30;;;;;;;;;;5158748;27;20027;-81
2023/09/15 14:51:55;;;;;;;2.90;2.70;;;;;;;;;;5159817;27;20051;-82
2023/09/15 14:54:21;;;;;;;3.33;3.10;;;;;;;;;;5160014;27;20067;-79
2023/09/15 14:56:47;;;;;;;2.47;2.28;;;;;;;;;;5159589;27;20022;-80
2023/09/15 14:59:13;;;;;;;3.67;3.03;;;;;;;;;;5158199;27;20101;-80
2023/09/15 15:01:39;;;;;;;3.20;3.00;;;;;;;;;;5158124;27;20050;-83
2023/09/15 15:04:06;;;;;;;3.05;2.85;;;;;;;;;;5157205;27;20057;-81
2023/09/15 15:06:32;;;;;;;2.90;2.70;;;;;;;;;;5158480;27;20027;-83
2023/09/15 15:08:58;;;;;;;4.57;2.53;;;;;;;;;;5158494;27;20046;-84
2023/09/15 15:11:24;;;;;;;2.80;2.60;;;;;;;;;;5141716;27;20012;-82
2023/09/15 15:13:51;;;;;;;2.88;2.50;;;;;;;;;;5139195;28;20027;-82
2023/09/15 15:16:17;;;;;;;2.95;2.75;;;;;;;;;;5138721;28;20027;-83
2023/09/15 15:18:46;;;;;;;2.47;2.28;;;;;;;;;;5137916;28;20033;-84
2023/09/15 15:21:12;;;;;;;2.72;2.53;;;;;;;;;;5137661;28;20019;-84
2023/09/15 15:23:38;;;;;;;3.25;3.00;;;;;;;;;;5137722;28;20003;-83
2023/09/15 15:26:04;;;;;;;3.13;2.85;;;;;;;;;;5139154;28;20018;-84